Airfield :
LOGIN :

Register | Disclaimer

   EN    FR    IT 

 










Legend :    VFR   Marginal VFR   IFR   Intensive IFR   Very Intensive IFR
Visi :
Ceiling :
>= 8 km
>= 3000ft
5 to 8 km
1000 to 3000 ft
1500m to 5 km
500 to 1000 ft
800 to 1500m
200 to 500 ft
< 800m
< 200 ft
Symbols :   Thunderstorms  Fog  Heavy snow  Heavy precipitations  Wind > 20 kt
SIGMETs :     Misc.  Thunderstorms  Icing  Turbulence  Mountain Waves  Volcanic Ashes







- Airport Elevation : 1273 ft
- IATA code : LJU


LJLJ - Ljubljana

CURRENT METAR :
  • 192200Z VRB02KT 9999 FEW080 17/13 Q1023 NOSIG

EXPIRED METARs :
  • 192130Z 29004KT 260V330 9999 FEW080 17/14 Q1023 NOSIG
  • 192100Z 16001KT 9999 FEW080 18/14 Q1022 NOSIG
  • 192030Z 06001KT 9999 FEW080 SCT100 19/13 Q1022 NOSIG
  • 192000Z 13004KT 9999 FEW080 SCT100 21/14 Q1022 NOSIG
  • 191930Z 15006KT 9999 FEW070 SCT100 22/13 Q1021 NOSIG

TAF TAF LJLJ
Valid from the 19 at 21:00 until the 20 at 21:00 UTC


192000Z 1921/2021 13005KT 9999 FEW070 SCT100
PROB30
TEMPO 2012/2017 FEW060TCU
No reported NOTAMs for that airfield.



MET'MAP, your aeronautical weather chart ! - Copyright ORBIFLY December 2007 - Disclaimer

ORBIFLY MET'MAP TEAM :

Programming & Development : Alexandra Zaïnal
Concept & Development : Baudouin d'Aumeries
Co-Development & Prog : Marc-Olivier Méhu
Technical & hardware support : Manuel Goepfert

Contact : metmap@orbifly.com




SOURCES & CREDITS :

   NOAA